createdAt,value
2017-08-25T00:01:23.664Z,50.33
2017-08-25T00:03:49.914Z,53.00
2017-08-25T00:06:16.144Z,48.40
2017-08-25T00:08:42.423Z,51.10
2017-08-25T00:11:08.575Z,51.47
2017-08-25T00:13:34.881Z,49.97
2017-08-25T00:16:01.015Z,48.27
2017-08-25T00:18:27.385Z,49.70
2017-08-25T00:20:53.585Z,46.43
2017-08-25T00:23:25.919Z,48.40
2017-08-25T00:25:52.174Z,51.27
2017-08-25T00:28:18.431Z,48.60
2017-08-25T00:30:50.784Z,59.30
2017-08-25T00:33:23.366Z,53.70
2017-08-25T00:35:49.564Z,53.73
2017-08-25T00:38:15.724Z,46.50
2017-08-25T00:40:42.050Z,44.83
2017-08-25T00:43:08.290Z,44.57
2017-08-25T00:45:34.525Z,45.97
2017-08-25T00:48:00.775Z,45.97
2017-08-25T00:50:27.008Z,45.07
2017-08-25T00:52:53.282Z,43.90
2017-08-25T00:55:19.488Z,45.67
2017-08-25T00:57:46.793Z,46.50
2017-08-25T01:00:13.303Z,43.13
2017-08-25T01:02:40.014Z,44.20
2017-08-25T01:05:06.896Z,42.80
2017-08-25T01:07:39.072Z,42.67
2017-08-25T01:10:11.789Z,39.40
2017-08-25T01:12:38.153Z,42.90
2017-08-25T01:15:04.353Z,41.20
2017-08-25T01:17:30.925Z,46.43
2017-08-25T01:20:03.349Z,56.77
2017-08-25T01:22:30.876Z,44.67
2017-08-25T01:24:57.105Z,101.50
2017-08-25T01:27:23.269Z,320.33
2017-08-25T01:29:49.703Z,74.27
2017-08-25T01:32:15.899Z,88.37
2017-08-25T01:34:42.066Z,90.37
2017-08-25T01:37:08.542Z,58.20
2017-08-25T01:39:34.740Z,44.37
2017-08-25T01:42:00.877Z,50.10
2017-08-25T01:44:28.170Z,38.80
2017-08-25T01:47:00.364Z,94.67
2017-08-25T01:49:26.851Z,36.00
2017-08-25T01:51:53.039Z,40.03
2017-08-25T01:54:19.175Z,39.57
2017-08-25T01:56:45.623Z,51.87
2017-08-25T01:59:11.856Z,86.60
2017-08-25T02:01:38.068Z,43.53
2017-08-25T02:04:04.637Z,37.77
2017-08-25T02:06:30.851Z,36.30
2017-08-25T02:08:57.053Z,37.27
2017-08-25T02:11:23.534Z,37.90
2017-08-25T02:13:49.769Z,37.00
2017-08-25T02:16:15.958Z,37.97
2017-08-25T02:18:42.607Z,36.00
2017-08-25T02:21:08.821Z,39.30
2017-08-25T02:23:34.931Z,41.00
2017-08-25T02:26:01.393Z,41.67
2017-08-25T02:28:27.603Z,43.27
2017-08-25T02:30:53.749Z,41.20
2017-08-25T02:33:20.479Z,43.60
2017-08-25T02:35:46.710Z,43.80
2017-08-25T02:38:12.921Z,41.00
2017-08-25T02:40:39.450Z,40.93
2017-08-25T02:43:05.687Z,42.00
2017-08-25T02:45:32.887Z,42.23
2017-08-25T02:47:59.613Z,41.67
2017-08-25T02:50:25.879Z,40.50
2017-08-25T02:52:52.117Z,40.40
2017-08-25T02:55:18.679Z,42.10
2017-08-25T02:57:44.971Z,40.30
2017-08-25T03:00:11.196Z,39.13
2017-08-25T03:02:37.413Z,42.10
2017-08-25T03:05:03.586Z,41.53
2017-08-25T03:07:30.046Z,41.43
2017-08-25T03:09:56.279Z,44.00
2017-08-25T03:12:22.466Z,43.00
2017-08-25T03:14:48.621Z,45.10
2017-08-25T03:17:14.840Z,44.67
2017-08-25T03:19:41.298Z,43.90
2017-08-25T03:22:07.520Z,41.73
2017-08-25T03:24:33.773Z,38.27
2017-08-25T03:26:59.989Z,40.00
2017-08-25T03:29:26.181Z,40.00
2017-08-25T03:31:59.567Z,40.63
2017-08-25T03:34:25.749Z,37.97
2017-08-25T03:36:51.918Z,36.23
2017-08-25T03:39:18.075Z,37.70
2017-08-25T03:41:44.322Z,36.23
2017-08-25T03:44:10.806Z,36.13
2017-08-25T03:46:36.929Z,38.10
2017-08-25T03:49:03.085Z,36.73
2017-08-25T03:51:29.331Z,37.40
2017-08-25T03:53:55.634Z,35.63
2017-08-25T03:56:22.186Z,34.50
2017-08-25T03:58:48.281Z,34.43
2017-08-25T04:01:14.384Z,36.00
2017-08-25T04:03:40.628Z,34.37
2017-08-25T04:06:06.857Z,35.47
2017-08-25T04:08:33.337Z,36.23
2017-08-25T04:10:59.523Z,34.33
2017-08-25T04:13:25.646Z,36.23
2017-08-25T04:15:51.907Z,35.90
2017-08-25T04:18:18.121Z,33.03
2017-08-25T04:20:44.325Z,35.10
2017-08-25T04:23:10.844Z,36.43
2017-08-25T04:25:37.127Z,35.00
2017-08-25T04:28:03.359Z,36.00
2017-08-25T04:30:29.645Z,35.97
2017-08-25T04:32:55.872Z,35.13
2017-08-25T04:35:22.065Z,35.37
2017-08-25T04:37:48.688Z,34.07
2017-08-25T04:40:15.198Z,32.67
2017-08-25T04:42:41.744Z,32.23
2017-08-25T04:45:07.957Z,33.53
2017-08-25T04:47:34.212Z,33.63
2017-08-25T04:50:00.450Z,31.97
2017-08-25T04:52:26.555Z,33.40
2017-08-25T04:54:52.774Z,32.37
2017-08-25T04:57:18.992Z,32.00
2017-08-25T04:59:45.105Z,33.10
2017-08-25T05:02:11.273Z,32.27
2017-08-25T05:04:37.499Z,30.83
2017-08-25T05:07:03.722Z,30.27
2017-08-25T05:09:29.933Z,28.37
2017-08-25T05:11:56.073Z,29.50
2017-08-25T05:14:22.302Z,29.50
2017-08-25T05:16:48.516Z,27.90
2017-08-25T05:19:14.704Z,27.40
2017-08-25T05:21:40.879Z,27.27
2017-08-25T05:24:07.106Z,26.13
2017-08-25T05:26:33.243Z,26.83
2017-08-25T05:28:59.455Z,26.97
2017-08-25T05:31:25.823Z,27.10
2017-08-25T05:33:52.317Z,26.40
2017-08-25T05:36:18.421Z,25.70
2017-08-25T05:38:44.588Z,25.97
2017-08-25T05:41:10.804Z,25.00
2017-08-25T05:43:37.038Z,25.90
2017-08-25T05:46:03.291Z,26.77
2017-08-25T05:48:29.456Z,26.40
2017-08-25T05:50:55.625Z,26.87
2017-08-25T05:53:21.850Z,25.33
2017-08-25T05:55:48.228Z,25.57
2017-08-25T05:58:14.407Z,24.93
2017-08-25T06:00:40.879Z,24.80
2017-08-25T06:03:07.297Z,25.17
2017-08-25T06:05:33.479Z,25.50
2017-08-25T06:07:59.942Z,24.17
2017-08-25T06:10:26.141Z,24.17
2017-08-25T06:12:52.287Z,24.97
2017-08-25T06:15:18.562Z,26.30
2017-08-25T06:17:44.734Z,25.23
2017-08-25T06:20:10.951Z,23.10
2017-08-25T06:22:37.238Z,22.40
2017-08-25T06:25:03.388Z,23.03
2017-08-25T06:27:29.579Z,22.97
2017-08-25T06:29:55.819Z,23.23
2017-08-25T06:32:22.647Z,23.27
2017-08-25T06:34:48.934Z,25.63
2017-08-25T06:37:15.198Z,22.03
2017-08-25T06:39:41.429Z,19.93
2017-08-25T06:42:07.640Z,22.10
2017-08-25T06:44:34.689Z,21.70
2017-08-25T06:47:01.038Z,19.50
2017-08-25T06:49:27.317Z,20.07
2017-08-25T06:51:53.514Z,20.20
2017-08-25T06:54:19.792Z,22.90
2017-08-25T06:56:45.904Z,18.93
2017-08-25T06:59:12.698Z,19.83
2017-08-25T07:01:39.024Z,18.43
2017-08-25T07:04:05.242Z,18.00
2017-08-25T07:06:31.666Z,17.23
2017-08-25T07:08:58.024Z,17.27
2017-08-25T07:11:24.251Z,16.40
2017-08-25T07:13:51.417Z,16.90
2017-08-25T07:16:18.586Z,16.20
2017-08-25T07:18:44.748Z,17.07
2017-08-25T07:21:10.895Z,16.57
2017-08-25T07:23:37.249Z,17.77
2017-08-25T07:26:03.983Z,19.40
2017-08-25T07:28:30.193Z,19.40
2017-08-25T07:30:56.400Z,14.50
2017-08-25T07:33:22.522Z,13.50
2017-08-25T07:35:48.980Z,14.10
2017-08-25T07:38:15.169Z,13.57
2017-08-25T07:40:41.367Z,12.00
2017-08-25T07:43:07.613Z,12.13
2017-08-25T07:45:33.811Z,11.97
2017-08-25T07:48:00.008Z,17.23
2017-08-25T07:50:26.382Z,10.40
2017-08-25T07:52:52.575Z,9.50
2017-08-25T07:55:18.818Z,9.97
2017-08-25T07:57:45.075Z,10.50
2017-08-25T08:00:11.284Z,8.40
2017-08-25T08:02:37.463Z,8.43
2017-08-25T08:05:03.970Z,8.77
2017-08-25T08:07:30.156Z,8.13
2017-08-25T08:09:56.314Z,8.43
2017-08-25T08:12:22.526Z,9.13
2017-08-25T08:14:48.729Z,7.60
2017-08-25T08:17:14.969Z,8.23
2017-08-25T08:19:41.374Z,8.20
2017-08-25T08:22:07.492Z,7.30
2017-08-25T08:24:33.614Z,9.47
2017-08-25T08:26:59.780Z,10.43
2017-08-25T08:29:25.991Z,7.93
2017-08-25T08:31:53.000Z,6.30
2017-08-25T08:34:19.340Z,6.37
2017-08-25T08:36:45.495Z,6.00
2017-08-25T08:39:11.710Z,5.47
2017-08-25T08:41:37.907Z,6.10
2017-08-25T08:44:04.069Z,5.80
2017-08-25T08:46:30.261Z,6.97
2017-08-25T08:48:56.788Z,6.30
2017-08-25T08:51:23.034Z,7.00
2017-08-25T08:53:49.263Z,6.90
2017-08-25T08:56:15.420Z,7.50
2017-08-25T08:58:41.621Z,8.10
2017-08-25T09:01:13.974Z,9.50
2017-08-25T09:03:42.277Z,10.27
2017-08-25T09:06:16.423Z,8.67
2017-08-25T09:08:44.457Z,8.73
2017-08-25T09:11:10.638Z,10.57
2017-08-25T09:13:36.794Z,9.30
2017-08-25T09:16:03.007Z,13.77
2017-08-25T09:18:29.195Z,8.43
2017-08-25T09:20:55.472Z,8.43
2017-08-25T09:23:21.716Z,8.63
2017-08-25T09:25:47.893Z,7.90
2017-08-25T09:28:14.156Z,7.23
2017-08-25T09:30:40.386Z,7.67
2017-08-25T09:33:07.603Z,7.90
2017-08-25T09:35:33.806Z,7.80
2017-08-25T09:38:01.676Z,7.50
2017-08-25T09:40:28.459Z,7.27
2017-08-25T09:42:57.049Z,7.50
2017-08-25T09:45:23.283Z,7.47
2017-08-25T09:47:49.475Z,7.80
2017-08-25T09:50:15.671Z,7.40
2017-08-25T09:52:41.865Z,7.33
2017-08-25T09:55:09.121Z,7.83
2017-08-25T09:57:36.529Z,7.93
2017-08-25T10:00:03.176Z,8.23
2017-08-25T10:02:29.351Z,7.50
2017-08-25T10:04:55.858Z,8.50
2017-08-25T10:07:23.131Z,8.07
2017-08-25T10:09:49.394Z,9.20
2017-08-25T10:14:49.532Z,8.37
2017-08-25T10:17:15.662Z,8.80
2017-08-25T10:19:41.820Z,10.20
2017-08-25T10:22:08.007Z,8.93
2017-08-25T10:24:34.186Z,8.20
2017-08-25T10:27:01.065Z,8.93
2017-08-25T10:29:27.303Z,8.83
2017-08-25T10:31:53.479Z,9.10
2017-08-25T10:34:32.003Z,9.50
2017-08-25T10:37:10.898Z,9.97
2017-08-25T10:39:50.028Z,9.30
2017-08-25T10:42:28.499Z,9.83
2017-08-25T10:45:00.831Z,10.10
2017-08-25T10:47:27.679Z,10.20
2017-08-25T10:49:53.977Z,11.00
2017-08-25T10:52:20.980Z,9.47
2017-08-25T10:54:47.446Z,9.37
2017-08-25T10:57:13.648Z,8.20
2017-08-25T10:59:39.998Z,8.47
2017-08-25T11:02:06.241Z,8.43
2017-08-25T11:04:32.414Z,7.63
2017-08-25T11:06:58.693Z,8.07
2017-08-25T11:09:25.814Z,8.10
2017-08-25T11:11:52.033Z,7.90
2017-08-25T11:14:18.911Z,7.13
2017-08-25T11:16:46.326Z,7.17
2017-08-25T11:19:12.633Z,6.30
2017-08-25T11:21:38.930Z,6.70
2017-08-25T11:24:06.254Z,6.67
2017-08-25T11:26:32.445Z,5.60
2017-08-25T11:28:58.815Z,5.70
2017-08-25T11:31:25.038Z,4.90
2017-08-25T11:33:51.271Z,5.43
2017-08-25T11:36:17.571Z,5.13
2017-08-25T11:38:43.803Z,4.80
2017-08-25T11:41:10.037Z,5.47
2017-08-25T11:43:36.289Z,5.40
2017-08-25T11:46:02.481Z,4.43
2017-08-25T11:48:28.625Z,4.37
2017-08-25T11:50:55.198Z,4.30
2017-08-25T11:53:22.183Z,4.50
2017-08-25T11:55:48.330Z,3.50
2017-08-25T11:58:14.525Z,3.77
2017-08-25T12:00:40.702Z,4.90
2017-08-25T12:03:06.921Z,3.93
2017-08-25T12:05:33.113Z,4.17
2017-08-25T12:07:59.261Z,3.70
2017-08-25T12:10:25.384Z,4.87
2017-08-25T12:12:51.649Z,3.30
2017-08-25T12:15:17.883Z,3.77
2017-08-25T12:17:44.111Z,3.80
2017-08-25T12:20:10.384Z,4.33
2017-08-25T12:22:36.526Z,3.97
2017-08-25T12:25:03.137Z,4.00
2017-08-25T12:27:29.374Z,3.73
2017-08-25T12:29:56.140Z,3.27
2017-08-25T12:32:22.291Z,3.60
2017-08-25T12:34:48.610Z,3.67
2017-08-25T12:37:14.822Z,3.60
2017-08-25T12:39:40.968Z,3.40
2017-08-25T12:42:07.227Z,3.73
2017-08-25T12:44:34.117Z,3.40
2017-08-25T12:47:01.266Z,2.90
2017-08-25T12:49:27.544Z,3.33
2017-08-25T12:51:53.774Z,2.97
2017-08-25T12:54:19.980Z,2.87
2017-08-25T12:56:46.226Z,3.50
2017-08-25T12:59:12.459Z,4.03
2017-08-25T13:01:38.765Z,3.30
2017-08-25T13:04:05.012Z,3.47
2017-08-25T13:06:31.243Z,3.23
2017-08-25T13:08:57.451Z,3.80
2017-08-25T13:11:23.697Z,3.00
2017-08-25T13:13:50.493Z,3.40
2017-08-25T13:16:16.645Z,3.50
2017-08-25T13:18:42.944Z,3.20
2017-08-25T13:21:09.313Z,3.67
2017-08-25T13:23:35.615Z,3.30
2017-08-25T13:26:01.803Z,3.50
2017-08-25T13:28:27.993Z,3.10
2017-08-25T13:30:54.219Z,3.27
2017-08-25T13:33:20.482Z,3.80
2017-08-25T13:35:46.673Z,3.17
2017-08-25T13:38:12.896Z,3.60
2017-08-25T13:40:39.148Z,3.53
2017-08-25T13:43:05.454Z,3.50
2017-08-25T13:45:31.815Z,3.10
2017-08-25T13:47:58.158Z,2.83
2017-08-25T13:50:25.586Z,3.20
2017-08-25T13:52:52.906Z,3.00
2017-08-25T13:55:19.414Z,2.67
2017-08-25T13:57:45.674Z,3.30
2017-08-25T14:00:11.818Z,3.10
2017-08-25T14:02:38.090Z,3.00
2017-08-25T14:05:04.298Z,3.10
2017-08-25T14:07:30.559Z,2.60
2017-08-25T14:09:56.818Z,2.50
2017-08-25T14:12:23.040Z,2.80
2017-08-25T14:14:49.257Z,2.50
2017-08-25T14:17:15.672Z,2.70
2017-08-25T14:19:41.941Z,2.93
2017-08-25T14:22:08.080Z,3.20
2017-08-25T14:24:34.602Z,3.00
2017-08-25T14:27:00.803Z,3.20
2017-08-25T14:29:26.985Z,2.80
2017-08-25T14:31:53.214Z,3.33
2017-08-25T14:34:19.427Z,3.67
2017-08-25T14:36:45.633Z,3.57
2017-08-25T14:39:13.074Z,2.83
2017-08-25T14:41:39.333Z,3.40
2017-08-25T14:44:05.969Z,2.50
2017-08-25T14:46:32.408Z,3.20
2017-08-25T14:48:58.545Z,2.70
2017-08-25T14:51:25.252Z,3.47
2017-08-25T14:53:51.430Z,3.50
2017-08-25T14:56:17.667Z,2.67
2017-08-25T14:58:43.848Z,2.70
2017-08-25T15:01:10.315Z,3.00
2017-08-25T15:03:36.533Z,3.10
2017-08-25T15:06:02.757Z,2.83
2017-08-25T15:08:32.186Z,2.60
2017-08-25T15:10:59.498Z,2.73
2017-08-25T15:13:25.956Z,2.87
2017-08-25T15:15:52.180Z,3.97
2017-08-25T15:18:18.691Z,3.47
2017-08-25T15:20:44.878Z,2.80
2017-08-25T15:23:11.067Z,2.90
2017-08-25T15:25:37.395Z,3.17
2017-08-25T15:28:03.633Z,3.10
2017-08-25T15:30:29.862Z,2.73
2017-08-25T15:32:56.082Z,3.00
2017-08-25T15:35:22.720Z,2.83
2017-08-25T15:37:48.938Z,2.57
2017-08-25T15:40:15.150Z,3.53
2017-08-25T15:42:41.314Z,2.70
2017-08-25T15:45:07.432Z,3.27
2017-08-25T15:47:33.550Z,3.67
2017-08-25T15:49:59.793Z,3.40
2017-08-25T15:52:26.058Z,3.57
2017-08-25T15:54:52.234Z,3.50
2017-08-25T15:57:19.507Z,3.50
2017-08-25T15:59:45.703Z,4.10
2017-08-25T16:02:11.917Z,3.43
2017-08-25T16:04:38.156Z,4.10
2017-08-25T16:07:04.478Z,3.00
2017-08-25T16:09:30.902Z,2.90
2017-08-25T16:11:58.299Z,3.63
2017-08-25T16:14:24.806Z,3.60
2017-08-25T16:16:51.292Z,2.93
2017-08-25T16:19:17.643Z,2.90
2017-08-25T16:21:43.913Z,4.97
2017-08-25T16:24:10.168Z,10.93
2017-08-25T16:26:36.482Z,11.97
2017-08-25T16:29:02.762Z,14.63
2017-08-25T16:31:28.953Z,25.17
2017-08-25T16:33:55.219Z,18.77
2017-08-25T16:36:21.510Z,21.53
2017-08-25T16:38:47.793Z,17.23
2017-08-25T16:41:14.066Z,16.17
2017-08-25T16:43:40.323Z,7.80
2017-08-25T16:46:06.498Z,10.00
2017-08-25T16:48:33.028Z,4.80
2017-08-25T16:50:59.276Z,4.70
2017-08-25T16:53:26.123Z,3.57
2017-08-25T16:55:52.439Z,4.63
2017-08-25T16:58:18.608Z,6.60
2017-08-25T17:00:44.799Z,4.90
2017-08-25T17:03:11.274Z,6.00
2017-08-25T17:05:37.477Z,4.43
2017-08-25T17:08:03.687Z,5.37
2017-08-25T17:10:29.981Z,8.70
2017-08-25T17:12:56.227Z,6.50
2017-08-25T17:15:22.430Z,14.73
2017-08-25T17:17:55.541Z,12.87
2017-08-25T17:20:23.291Z,16.43
2017-08-25T17:22:49.595Z,8.50
2017-08-25T17:25:15.867Z,32.33
2017-08-25T17:27:42.132Z,15.87
2017-08-25T17:30:09.552Z,20.93
2017-08-25T17:32:35.940Z,22.23
2017-08-25T17:35:02.146Z,5.77
2017-08-25T17:37:28.447Z,6.80
2017-08-25T17:39:54.676Z,22.00
2017-08-25T17:42:20.987Z,13.00
2017-08-25T17:44:51.075Z,14.07
2017-08-25T17:47:17.471Z,14.57
2017-08-25T17:49:44.097Z,13.23
2017-08-25T17:52:10.405Z,10.47
2017-08-25T17:54:43.460Z,10.07
2017-08-25T17:57:09.701Z,13.50
2017-08-25T17:59:36.100Z,6.43
2017-08-25T18:02:02.365Z,6.83
2017-08-25T18:04:28.502Z,10.43
2017-08-25T18:06:54.782Z,7.80
2017-08-25T18:09:20.939Z,9.03
2017-08-25T18:11:48.349Z,5.50
2017-08-25T18:14:15.182Z,5.60
2017-08-25T18:16:41.488Z,9.13
2017-08-25T18:19:07.692Z,16.00
2017-08-25T18:21:33.992Z,14.03
2017-08-25T18:24:00.439Z,16.23
2017-08-25T18:26:26.595Z,11.60
2017-08-25T18:28:53.247Z,9.40
2017-08-25T18:31:20.706Z,12.53
2017-08-25T18:33:46.960Z,12.17
2017-08-25T18:36:14.266Z,12.50
2017-08-25T18:38:40.580Z,9.63
2017-08-25T18:41:08.041Z,10.93
2017-08-25T18:43:34.999Z,8.70
2017-08-25T18:46:02.135Z,15.17
2017-08-25T18:48:28.367Z,11.00
2017-08-25T18:50:54.609Z,13.80
2017-08-25T18:53:22.027Z,10.20
2017-08-25T18:55:48.262Z,15.67
2017-08-25T18:58:14.522Z,10.53
2017-08-25T19:00:41.322Z,12.43
2017-08-25T19:03:07.639Z,11.20
2017-08-25T19:05:34.784Z,12.13
2017-08-25T19:08:01.074Z,9.53
2017-08-25T19:10:27.431Z,12.90
2017-08-25T19:12:53.673Z,14.50
2017-08-25T19:15:20.098Z,13.73
2017-08-25T19:17:46.552Z,14.80
2017-08-25T19:20:12.880Z,13.90
2017-08-25T19:22:39.174Z,13.90
2017-08-25T19:25:05.494Z,18.70
2017-08-25T19:27:31.632Z,18.63
2017-08-25T19:29:59.075Z,18.90
2017-08-25T19:32:25.328Z,11.57
2017-08-25T19:34:51.560Z,18.37
2017-08-25T19:37:19.171Z,11.40
2017-08-25T19:39:46.760Z,13.80
2017-08-25T19:42:12.941Z,10.90
2017-08-25T19:44:40.466Z,11.13
2017-08-25T19:47:06.703Z,12.50
2017-08-25T19:49:36.136Z,13.70
2017-08-25T19:52:05.367Z,13.20
2017-08-25T19:54:32.360Z,12.97
2017-08-25T19:56:58.877Z,12.63
2017-08-25T19:59:25.325Z,13.07
2017-08-25T20:01:51.544Z,11.30
2017-08-25T20:04:18.421Z,12.00
2017-08-25T20:06:44.657Z,11.73
2017-08-25T20:09:10.894Z,13.10
2017-08-25T20:11:37.118Z,12.77
2017-08-25T20:14:03.365Z,12.10
2017-08-25T20:16:29.588Z,16.87
2017-08-25T20:18:55.775Z,25.70
2017-08-25T20:21:21.994Z,32.13
2017-08-25T20:23:48.193Z,21.17
2017-08-25T20:26:14.501Z,18.90
2017-08-25T20:28:40.740Z,18.20
2017-08-25T20:31:07.169Z,21.80
2017-08-25T20:33:33.649Z,19.70
2017-08-25T20:35:59.866Z,20.20
2017-08-25T20:38:26.209Z,19.00
2017-08-25T20:40:52.916Z,15.97
2017-08-25T20:43:19.062Z,18.27
2017-08-25T20:45:46.292Z,19.10
2017-08-25T20:48:13.777Z,18.07
2017-08-25T20:50:40.072Z,19.33
2017-08-25T20:53:06.258Z,21.60
2017-08-25T20:55:32.681Z,21.67
2017-08-25T20:57:58.899Z,22.67
2017-08-25T21:00:25.192Z,22.53
2017-08-25T21:02:51.445Z,21.17
2017-08-25T21:05:17.689Z,21.53
2017-08-25T21:07:43.963Z,20.90
2017-08-25T21:10:10.550Z,20.83
2017-08-25T21:12:36.898Z,21.40
2017-08-25T21:15:03.386Z,23.53
2017-08-25T21:17:29.611Z,25.93
2017-08-25T21:19:56.056Z,24.97
2017-08-25T21:22:23.170Z,25.80
2017-08-25T21:24:49.641Z,22.07
2017-08-25T21:27:16.985Z,22.83
2017-08-25T21:29:43.230Z,26.27
2017-08-25T21:32:09.698Z,30.23
2017-08-25T21:34:35.863Z,30.90
2017-08-25T21:37:02.051Z,33.63
2017-08-25T21:39:28.319Z,30.40
2017-08-25T21:41:54.772Z,33.07
2017-08-25T21:44:20.910Z,33.33
2017-08-25T21:46:47.376Z,37.83
2017-08-25T21:49:13.568Z,36.10
2017-08-25T21:51:39.779Z,33.73
2017-08-25T21:54:06.986Z,35.37
2017-08-25T21:56:33.329Z,32.07
2017-08-25T21:58:59.510Z,53.60
2017-08-25T22:01:25.933Z,52.63
2017-08-25T22:03:52.344Z,41.17
2017-08-25T22:06:19.203Z,33.23
2017-08-25T22:08:45.670Z,30.23
2017-08-25T22:11:11.945Z,31.57
2017-08-25T22:13:38.214Z,30.80
2017-08-25T22:16:04.495Z,31.60
2017-08-25T22:18:30.775Z,33.73
2017-08-25T22:20:58.210Z,32.40
2017-08-25T22:23:24.380Z,32.03
2017-08-25T22:25:50.974Z,34.97
2017-08-25T22:28:17.205Z,33.90
2017-08-25T22:30:43.479Z,33.67
2017-08-25T22:33:10.022Z,36.73
2017-08-25T22:35:36.289Z,33.33
2017-08-25T22:38:02.957Z,33.37
2017-08-25T22:43:27.926Z,56.97
2017-08-25T22:45:55.102Z,31.97
2017-08-25T22:48:21.407Z,31.30
2017-08-25T22:50:47.785Z,30.60
2017-08-25T22:53:14.029Z,34.03
2017-08-25T22:55:40.445Z,35.03
2017-08-25T22:58:07.834Z,30.77
2017-08-25T23:00:34.297Z,30.57
2017-08-25T23:03:00.699Z,30.17
2017-08-25T23:05:27.109Z,28.57
2017-08-25T23:07:53.369Z,31.57
2017-08-25T23:10:21.530Z,26.53
2017-08-25T23:12:47.845Z,27.47
2017-08-25T23:15:14.088Z,25.73
2017-08-25T23:17:41.389Z,25.77
2017-08-25T23:20:07.637Z,24.50
2017-08-25T23:22:33.746Z,23.60
2017-08-25T23:24:59.881Z,33.23
2017-08-25T23:27:26.182Z,24.17
2017-08-25T23:29:52.346Z,25.20
2017-08-25T23:32:18.643Z,24.63
2017-08-25T23:34:45.015Z,37.83
2017-08-25T23:37:11.335Z,27.53
2017-08-25T23:39:37.485Z,25.33
2017-08-25T23:42:03.723Z,28.60
2017-08-25T23:44:29.910Z,28.80
2017-08-25T23:46:57.754Z,23.87
2017-08-25T23:49:24.106Z,34.70
2017-08-25T23:51:51.719Z,30.20
2017-08-25T23:54:19.377Z,30.07
2017-08-25T23:56:46.410Z,25.70
2017-08-25T23:59:13.437Z,32.83
